KOWX

Putnam County Airport

Ottawa, Ohio, USA
METAR KOWX 191655Z AUTO 11004KT 10SM CLR 24/16 A3004 RMK AO1
Observed Flight Rules
Aug-19 @ 16:55 UTC (18 minutes ago) Visual Flight Rules
Wind Visibility Clouds
110° at 4 knots 10 miles
  • Clear skies
Temperatures Readings
Current 24°C / 75°F
Dewpoint 16°C / 61°F
Humidity 61%
Altimeter 30.04" Hg
Pressure 1017 hPa
Elevation 233
METAR KOWX 191655Z AUTO 11004KT 10SM CLR 24/16 A3004 RMK AO1
Observed Flight Rules
Aug-19 @ 16:55 UTC
(18 minutes ago)
VFR
Wind Visibility
110° at 4 knots 10 miles
Clouds
  • Clear skies
Temperature Dewpoint
24°C / 75°F 16°C / 61°F
Humidity Altimeter Pressure
61% 30.04" Hg 1017 hPa